Time;durP1;ratioP1;P1;durP2;ratioP2;P2;SDS_P1;SDS_P2;PMS_P1;PMS_P2;Temp;Humidity;BMP_temperature;BMP_pressure;BME280_temperature;BME280_humidity;BME280_pressure;Samples;Min_cycle;Max_cycle;Signal;HPM_P1;HPM_P2
2023/11/28 00:01:36;;;;;;;2.70;2.15;;;5.00;99.90;;;;;;5057483;28;20580;-76
2023/11/28 00:04:02;;;;;;;2.53;2.20;;;4.90;99.90;;;;;;5079112;28;20183;-76
2023/11/28 00:06:27;;;;;;;3.00;2.40;;;4.90;99.90;;;;;;5091319;28;20203;-76
2023/11/28 00:08:53;;;;;;;3.13;2.70;;;4.80;99.90;;;;;;5104671;28;20636;-75
2023/11/28 00:11:20;;;;;;;2.93;2.47;;;4.80;99.90;;;;;;5052693;28;20175;-76
2023/11/28 00:13:46;;;;;;;3.35;3.05;;;4.70;99.90;;;;;;5088738;28;20175;-76
2023/11/28 00:16:12;;;;;;;2.83;2.40;;;4.70;99.90;;;;;;5085796;28;20298;-75
2023/11/28 00:18:41;;;;;;;2.33;2.13;;;4.60;99.90;;;;;;5102738;28;20656;-76
2023/11/28 00:21:08;;;;;;;2.47;1.83;;;4.60;99.90;;;;;;5104991;28;20186;-76
2023/11/28 00:23:33;;;;;;;3.20;2.35;;;4.60;99.90;;;;;;5088054;28;20206;-76
2023/11/28 00:25:59;;;;;;;4.53;2.40;;;4.60;99.90;;;;;;5087904;28;20206;-76
2023/11/28 00:28:25;;;;;;;4.00;3.03;;;4.60;99.90;;;;;;5071384;28;20675;-75
2023/11/28 00:31:02;;;;;;;6.20;4.80;;;4.60;99.90;;;;;;5070784;28;20641;-76
2023/11/28 00:33:28;;;;;;;6.00;5.40;;;4.50;99.90;;;;;;5070461;28;20582;-75
2023/11/28 00:35:54;;;;;;;6.63;5.20;;;4.50;99.90;;;;;;5089656;28;20249;-77
2023/11/28 00:38:21;;;;;;;6.57;4.77;;;4.50;99.90;;;;;;5084549;28;20581;-76
2023/11/28 00:40:48;;;;;;;6.80;5.47;;;4.40;99.90;;;;;;5106543;28;20159;-76
2023/11/28 00:43:16;;;;;;;7.30;5.80;;;4.40;99.90;;;;;;5092114;28;20190;-76
2023/11/28 00:45:42;;;;;;;5.85;4.57;;;4.40;99.90;;;;;;5110849;28;20611;-76
2023/11/28 00:48:10;;;;;;;6.63;5.35;;;4.40;99.90;;;;;;5093488;28;20218;-77
2023/11/28 00:50:36;;;;;;;5.40;4.73;;;4.30;99.90;;;;;;5109983;28;20186;-76
2023/11/28 00:53:02;;;;;;;6.40;5.30;;;4.30;99.90;;;;;;5121647;28;20175;-76
2023/11/28 00:55:27;;;;;;;5.50;4.90;;;4.30;99.90;;;;;;5119590;28;20765;-77
2023/11/28 00:57:54;;;;;;;5.90;5.03;;;4.30;99.90;;;;;;5120008;28;20285;-75
2023/11/28 01:00:19;;;;;;;6.20;4.63;;;4.30;99.90;;;;;;5111649;28;20182;-74
2023/11/28 01:02:45;;;;;;;5.03;4.47;;;4.20;99.90;;;;;;5109142;28;20182;-76
2023/11/28 01:05:11;;;;;;;5.00;4.33;;;4.20;99.90;;;;;;5084882;28;20179;-77
2023/11/28 01:07:37;;;;;;;5.10;4.28;;;4.20;99.90;;;;;;5088254;28;20674;-76
2023/11/28 01:10:04;;;;;;;4.97;3.73;;;4.20;99.90;;;;;;5070570;28;20168;-76
2023/11/28 01:12:30;;;;;;;5.20;4.50;;;4.20;99.90;;;;;;5065318;28;21251;-76
2023/11/28 01:14:56;;;;;;;5.50;4.18;;;4.20;99.90;;;;;;5059582;28;20172;-76
2023/11/28 01:17:23;;;;;;;4.47;4.03;;;4.20;99.90;;;;;;5075889;28;20215;-76
2023/11/28 01:19:49;;;;;;;5.68;4.00;;;4.20;99.90;;;;;;5094205;28;20659;-75
2023/11/28 01:22:15;;;;;;;4.10;3.63;;;4.20;99.90;;;;;;5076208;28;20231;-77
2023/11/28 01:24:41;;;;;;;4.27;3.87;;;4.20;99.90;;;;;;5075826;28;20172;-76
2023/11/28 01:27:09;;;;;;;4.50;3.63;;;4.10;99.90;;;;;;5059059;28;20645;-75
2023/11/28 01:29:35;;;;;;;4.20;3.80;;;4.10;99.90;;;;;;5075931;28;20175;-76
2023/11/28 01:32:02;;;;;;;4.88;4.40;;;4.10;99.90;;;;;;5094516;28;20217;-76
2023/11/28 01:34:28;;;;;;;4.30;3.72;;;4.10;99.90;;;;;;5079123;28;20167;-76
2023/11/28 01:36:55;;;;;;;4.20;3.80;;;4.00;99.90;;;;;;5075890;28;20274;-77
2023/11/28 01:39:20;;;;;;;4.32;3.10;;;4.00;99.90;;;;;;5075982;28;20619;-76
2023/11/28 01:41:47;;;;;;;4.80;3.92;;;4.00;99.90;;;;;;5078687;28;20174;-76
2023/11/28 01:44:13;;;;;;;3.83;3.38;;;4.00;99.90;;;;;;5078924;28;20179;-76
2023/11/28 01:46:39;;;;;;;4.10;3.50;;;3.90;99.90;;;;;;5079282;28;20247;-77
2023/11/28 01:49:06;;;;;;;3.70;2.80;;;3.90;99.90;;;;;;5078880;28;20198;-77
2023/11/28 01:51:35;;;;;;;6.28;3.85;;;3.90;99.90;;;;;;5078116;28;20580;-77
2023/11/28 01:54:02;;;;;;;4.13;3.22;;;3.90;99.90;;;;;;5114148;28;20239;-77
2023/11/28 01:56:29;;;;;;;4.20;3.72;;;3.90;99.90;;;;;;5078664;28;20208;-77
2023/11/28 01:58:56;;;;;;;3.70;3.20;;;3.80;99.90;;;;;;5078662;28;20181;-78
2023/11/28 02:01:22;;;;;;;3.50;2.85;;;3.80;99.90;;;;;;5087333;28;20182;-79
2023/11/28 02:03:49;;;;;;;3.43;2.90;;;3.80;99.90;;;;;;5114295;28;20178;-79
2023/11/28 02:06:15;;;;;;;4.00;3.20;;;3.80;99.90;;;;;;5094819;28;20688;-79
2023/11/28 02:08:41;;;;;;;3.35;3.03;;;3.80;99.90;;;;;;5063535;28;20197;-80
2023/11/28 02:11:26;;;;;;;3.75;3.15;;;3.80;99.90;;;;;;5081850;28;20244;-80
2023/11/28 02:13:52;;;;;;;4.40;3.53;;;3.80;99.90;;;;;;5109917;28;20180;-79
2023/11/28 02:16:37;;;;;;;4.55;4.00;;;3.80;99.90;;;;;;5080912;28;21314;-80
2023/11/28 02:19:23;;;;;;;3.63;3.10;;;3.80;99.90;;;;;;5095601;28;20196;-80
2023/11/28 02:22:09;;;;;;;4.18;3.78;;;3.80;99.90;;;;;;5078276;28;20207;-79
2023/11/28 02:24:45;;;;;;;5.03;4.53;;;3.80;99.90;;;;;;5043120;28;20172;-79
2023/11/28 02:27:31;;;;;;;5.30;4.28;;;3.80;99.90;;;;;;5077692;28;20208;-80
2023/11/28 02:29:57;;;;;;;5.13;4.63;;;3.80;99.90;;;;;;5058213;28;20175;-78
2023/11/28 02:32:22;;;;;;;5.30;4.80;;;3.90;99.90;;;;;;5067012;28;20174;-78
2023/11/28 02:35:08;;;;;;;4.13;3.78;;;3.90;99.90;;;;;;5093150;28;20175;-78
2023/11/28 02:37:54;;;;;;;4.63;4.22;;;3.90;99.90;;;;;;5106539;28;20189;-78
2023/11/28 02:40:40;;;;;;;4.38;3.97;;;3.80;99.90;;;;;;5110556;28;20183;-77
2023/11/28 02:43:26;;;;;;;3.50;3.17;;;3.90;99.90;;;;;;5092682;28;20188;-78
2023/11/28 02:46:12;;;;;;;4.90;4.28;;;3.90;99.90;;;;;;5078227;28;20199;-78
2023/11/28 02:48:58;;;;;;;3.90;3.60;;;3.90;99.90;;;;;;5078353;28;20239;-78
2023/11/28 02:51:44;;;;;;;4.20;3.80;;;3.90;99.90;;;;;;5077542;28;20175;-78
2023/11/28 02:54:29;;;;;;;5.25;4.75;;;3.90;99.90;;;;;;5093120;28;20902;-79
2023/11/28 02:57:15;;;;;;;3.50;3.20;;;3.90;99.90;;;;;;5108552;28;20600;-79
2023/11/28 03:00:04;;;;;;;4.40;4.00;;;3.90;99.90;;;;;;5109404;22;20285;-83
2023/11/28 03:02:50;;;;;;;3.78;3.47;;;3.90;99.90;;;;;;5130869;28;20179;-83
2023/11/28 03:05:36;;;;;;;3.83;3.53;;;3.90;99.90;;;;;;5136098;28;20204;-83
2023/11/28 03:08:22;;;;;;;3.30;3.00;;;3.90;99.90;;;;;;5106512;28;20221;-82
2023/11/28 03:11:09;;;;;;;3.55;3.25;;;3.90;99.90;;;;;;5050999;28;20199;-83
2023/11/28 03:13:54;;;;;;;3.47;2.88;;;3.90;99.90;;;;;;5111656;28;20171;-82
2023/11/28 03:16:40;;;;;;;3.40;3.10;;;3.90;99.90;;;;;;5086899;28;20208;-82
2023/11/28 03:19:26;;;;;;;2.53;2.33;;;3.90;99.90;;;;;;5124632;28;20644;-82
2023/11/28 03:22:12;;;;;;;2.20;1.80;;;3.90;99.90;;;;;;5100293;28;20192;-81
2023/11/28 03:25:06;;;;;;;2.28;2.03;;;3.90;99.90;;;;;;5106857;28;20170;-81
2023/11/28 03:27:53;;;;;;;1.92;1.65;;;3.90;99.90;;;;;;5116473;28;20255;-81
2023/11/28 03:30:39;;;;;;;2.42;1.80;;;3.90;99.90;;;;;;5078512;27;20205;-81
2023/11/28 03:33:24;;;;;;;2.08;1.55;;;3.90;99.90;;;;;;5036342;28;20167;-81
2023/11/28 03:36:17;;;;;;;2.00;1.40;;;3.90;99.90;;;;;;5124049;28;20251;-80
2023/11/28 03:39:03;;;;;;;2.10;1.90;;;3.80;99.90;;;;;;5154124;27;20226;-81
2023/11/28 03:41:50;;;;;;;2.13;1.75;;;3.80;99.90;;;;;;5160282;27;20178;-82
2023/11/28 03:44:37;;;;;;;2.30;2.10;;;3.80;99.90;;;;;;5952106;22;20274;-79
2023/11/28 03:47:23;;;;;;;1.85;1.70;;;3.80;99.90;;;;;;5097027;28;20203;-81
2023/11/28 03:50:09;;;;;;;2.17;1.77;;;3.80;99.90;;;;;;5076434;28;20256;-81
2023/11/28 03:52:55;;;;;;;2.30;1.70;;;3.70;99.90;;;;;;5081227;28;20215;-80
2023/11/28 03:55:41;;;;;;;2.30;1.63;;;3.70;99.90;;;;;;5078911;28;20179;-80
2023/11/28 03:58:27;;;;;;;2.47;2.10;;;3.70;99.90;;;;;;5055578;28;20169;-81
2023/11/28 04:01:14;;;;;;;2.50;2.30;;;3.70;99.90;;;;;;5062146;28;20220;-80
2023/11/28 04:04:01;;;;;;;2.15;1.95;;;3.70;99.90;;;;;;5055127;28;20178;-80
2023/11/28 04:06:47;;;;;;;2.70;2.50;;;3.70;99.90;;;;;;5042611;28;20177;-81
2023/11/28 04:09:33;;;;;;;2.78;2.45;;;3.70;99.90;;;;;;5045162;28;20205;-80
2023/11/28 04:12:15;;;;;;;3.28;3.08;;;3.70;99.90;;;;;;5056133;28;20187;-81
2023/11/28 04:15:01;;;;;;;2.97;2.78;;;3.70;99.90;;;;;;5065597;28;20161;-81
2023/11/28 04:17:47;;;;;;;3.08;2.88;;;3.70;99.90;;;;;;5079750;28;20189;-80
2023/11/28 04:20:34;;;;;;;3.35;3.05;;;3.70;99.90;;;;;;5071004;28;20197;-80
2023/11/28 04:23:20;;;;;;;3.00;2.80;;;3.80;99.90;;;;;;5060616;28;20252;-81
2023/11/28 04:26:06;;;;;;;2.90;2.70;;;3.80;99.90;;;;;;5069482;28;20183;-81
2023/11/28 04:28:52;;;;;;;3.60;3.30;;;3.80;99.90;;;;;;5053154;28;20216;-80
2023/11/28 04:31:38;;;;;;;4.07;3.72;;;3.80;99.90;;;;;;5052391;28;20212;-80
2023/11/28 04:34:24;;;;;;;4.28;2.90;;;3.80;99.90;;;;;;5045177;28;20625;-81
2023/11/28 04:37:09;;;;;;;3.55;3.28;;;3.80;99.90;;;;;;5066602;28;20315;-81
2023/11/28 04:39:45;;;;;;;3.45;3.15;;;3.90;99.90;;;;;;5027059;28;20188;-81
2023/11/28 04:42:31;;;;;;;3.95;3.55;;;3.90;99.90;;;;;;5034013;28;20569;-82
2023/11/28 04:45:17;;;;;;;3.95;3.65;;;3.90;99.90;;;;;;5069895;28;20192;-81
2023/11/28 04:48:02;;;;;;;3.95;3.65;;;3.90;99.90;;;;;;5067801;28;20203;-81
2023/11/28 04:50:48;;;;;;;5.00;4.50;;;4.00;99.90;;;;;;5068984;28;20196;-81
2023/11/28 04:53:35;;;;;;;4.85;4.50;;;4.00;99.90;;;;;;5082352;28;20156;-81
2023/11/28 04:56:21;;;;;;;5.22;4.78;;;4.00;99.90;;;;;;5065842;28;20183;-81
2023/11/28 04:59:06;;;;;;;6.32;5.82;;;4.00;99.90;;;;;;5039584;28;20176;-81
2023/11/28 05:01:52;;;;;;;6.28;5.78;;;4.00;99.90;;;;;;5039133;28;20763;-81
2023/11/28 05:04:38;;;;;;;6.75;6.25;;;4.00;99.90;;;;;;5038208;28;20233;-80
2023/11/28 05:07:23;;;;;;;6.20;5.72;;;4.00;99.90;;;;;;5034862;28;20174;-81
2023/11/28 05:10:09;;;;;;;6.93;6.43;;;4.00;99.90;;;;;;5020995;28;20276;-81
2023/11/28 05:12:55;;;;;;;6.65;6.07;;;4.00;99.90;;;;;;5037480;28;20316;-80
2023/11/28 05:15:41;;;;;;;7.13;6.63;;;4.00;99.90;;;;;;5041481;28;20186;-81
2023/11/28 05:18:27;;;;;;;7.93;7.22;;;4.00;99.90;;;;;;5062511;28;20185;-83
2023/11/28 05:21:13;;;;;;;6.20;5.80;;;4.00;99.90;;;;;;5035026;28;20220;-84
2023/11/28 05:24:01;;;;;;;6.40;5.55;;;4.00;99.90;;;;;;5050301;28;20181;-84
2023/11/28 05:26:47;;;;;;;5.68;5.18;;;4.00;99.90;;;;;;5033840;28;20565;-84
2023/11/28 05:29:33;;;;;;;5.90;5.50;;;4.00;99.90;;;;;;5052441;28;21517;-83
2023/11/28 05:32:18;;;;;;;6.00;5.50;;;4.00;99.90;;;;;;5049443;28;20185;-84
2023/11/28 05:35:06;;;;;;;6.07;5.60;;;4.00;99.90;;;;;;5028859;28;20270;-84
2023/11/28 05:37:51;;;;;;;7.32;6.63;;;4.00;99.90;;;;;;5049657;28;20576;-82
2023/11/28 05:40:37;;;;;;;5.30;4.85;;;4.00;99.90;;;;;;5026386;28;20223;-81
2023/11/28 05:43:23;;;;;;;6.20;5.80;;;4.10;99.90;;;;;;5035726;28;20239;-81
2023/11/28 05:46:09;;;;;;;6.53;6.03;;;4.10;99.90;;;;;;5027241;28;20219;-82
2023/11/28 05:48:55;;;;;;;6.05;5.45;;;4.10;99.90;;;;;;5026770;28;20201;-81
2023/11/28 05:51:41;;;;;;;6.40;5.90;;;4.10;99.90;;;;;;5037281;28;20200;-81
2023/11/28 05:54:28;;;;;;;5.80;5.22;;;4.20;99.90;;;;;;5036892;28;20214;-80
2023/11/28 05:57:14;;;;;;;6.95;6.35;;;4.20;99.90;;;;;;5048984;28;20192;-80
2023/11/28 06:00:00;;;;;;;6.95;6.45;;;4.20;99.90;;;;;;5021798;28;20250;-81
2023/11/28 06:02:45;;;;;;;8.57;7.88;;;4.20;99.90;;;;;;5051769;28;20230;-81
2023/11/28 06:05:32;;;;;;;9.32;8.60;;;4.20;99.90;;;;;;5038360;28;20236;-81
2023/11/28 06:08:18;;;;;;;8.60;7.80;;;4.20;99.90;;;;;;5023603;28;20212;-80
2023/11/28 06:11:04;;;;;;;8.80;8.00;;;4.20;99.90;;;;;;5023353;28;20251;-80
2023/11/28 06:13:50;;;;;;;8.23;7.63;;;4.20;99.90;;;;;;5019901;28;20181;-80
2023/11/28 06:16:35;;;;;;;8.40;7.78;;;4.10;99.90;;;;;;5033750;28;20550;-81
2023/11/28 06:19:21;;;;;;;9.30;8.50;;;4.10;99.90;;;;;;5025099;28;20198;-81
2023/11/28 06:22:07;;;;;;;7.80;7.20;;;4.10;99.90;;;;;;5025086;28;20668;-81
2023/11/28 06:24:53;;;;;;;7.93;7.25;;;4.10;99.90;;;;;;5044990;28;20228;-81
2023/11/28 06:27:38;;;;;;;7.55;6.95;;;4.10;99.90;;;;;;5044777;28;20201;-81
2023/11/28 06:30:24;;;;;;;8.07;7.38;;;4.10;99.90;;;;;;5046111;28;20694;-81
2023/11/28 06:33:10;;;;;;;7.10;6.50;;;4.10;99.90;;;;;;5037817;28;20215;-81
2023/11/28 06:35:56;;;;;;;7.13;6.55;;;4.10;99.90;;;;;;5051987;28;20577;-81
2023/11/28 06:38:41;;;;;;;7.82;7.22;;;4.10;99.90;;;;;;5041763;28;20219;-80
2023/11/28 06:41:27;;;;;;;6.63;6.03;;;4.10;99.90;;;;;;5032458;28;20241;-81
2023/11/28 06:44:13;;;;;;;7.07;6.47;;;4.10;99.90;;;;;;5054239;28;20181;-81
2023/11/28 06:47:00;;;;;;;7.32;6.65;;;4.10;99.90;;;;;;5047562;28;20185;-81
2023/11/28 06:49:47;;;;;;;7.68;6.97;;;4.10;99.90;;;;;;5042920;28;20189;-81
2023/11/28 06:52:36;;;;;;;7.93;7.18;;;4.10;99.90;;;;;;5040351;28;20190;-80
2023/11/28 06:55:22;;;;;;;9.02;8.13;;;4.10;99.90;;;;;;5040092;28;20168;-80
2023/11/28 06:58:08;;;;;;;8.60;7.75;;;4.10;99.90;;;;;;5044464;28;20181;-81
2023/11/28 07:00:54;;;;;;;9.10;8.27;;;4.00;99.90;;;;;;5016822;28;20197;-81
2023/11/28 07:03:40;;;;;;;7.88;7.18;;;4.10;99.90;;;;;;5058482;28;20177;-80
2023/11/28 07:06:25;;;;;;;8.05;7.35;;;4.10;99.90;;;;;;5058170;28;20209;-81
2023/11/28 07:09:11;;;;;;;7.45;6.85;;;4.10;99.90;;;;;;5042659;28;20262;-81
2023/11/28 07:11:57;;;;;;;7.45;6.70;;;4.10;99.90;;;;;;5055961;28;20271;-81
2023/11/28 07:14:42;;;;;;;8.73;7.82;;;4.10;99.90;;;;;;5042075;28;20189;-80
2023/11/28 07:17:28;;;;;;;8.45;7.65;;;4.20;99.90;;;;;;5035453;28;20170;-81
2023/11/28 07:20:14;;;;;;;7.38;6.60;;;4.20;99.90;;;;;;5040895;28;20258;-81
2023/11/28 07:23:00;;;;;;;7.57;6.82;;;4.20;99.90;;;;;;5037629;28;20200;-79
2023/11/28 07:25:47;;;;;;;8.07;7.50;;;4.30;99.90;;;;;;5051533;28;20220;-80
2023/11/28 07:28:33;;;;;;;8.65;8.05;;;4.30;99.90;;;;;;5055762;28;20187;-79
2023/11/28 07:31:20;;;;;;;8.23;7.43;;;4.30;99.90;;;;;;5070203;28;20199;-79
2023/11/28 07:34:06;;;;;;;7.50;6.80;;;4.30;99.90;;;;;;5058606;28;20184;-79
2023/11/28 07:36:52;;;;;;;7.85;7.05;;;4.30;99.90;;;;;;5064854;28;20189;-81
2023/11/28 07:39:38;;;;;;;8.52;7.75;;;4.30;99.90;;;;;;5047229;28;20182;-80
2023/11/28 07:42:24;;;;;;;10.25;9.35;;;4.40;99.90;;;;;;5030415;28;20156;-81
2023/11/28 07:45:10;;;;;;;10.30;8.90;;;4.40;99.90;;;;;;5073728;28;20211;-79
2023/11/28 07:47:57;;;;;;;8.50;7.65;;;4.30;99.90;;;;;;5076721;28;20211;-81
2023/11/28 07:50:44;;;;;;;10.10;8.95;;;4.40;99.90;;;;;;5074086;28;20224;-79
2023/11/28 07:53:30;;;;;;;7.60;6.97;;;4.40;99.90;;;;;;5062600;28;20172;-79
2023/11/28 07:56:17;;;;;;;8.50;7.72;;;4.30;99.90;;;;;;5053152;28;20181;-79
2023/11/28 07:59:03;;;;;;;9.32;7.55;;;4.30;99.90;;;;;;5051845;28;20173;-80
2023/11/28 08:01:48;;;;;;;7.50;6.80;;;4.30;99.90;;;;;;5060477;28;20244;-80
2023/11/28 08:04:34;;;;;;;7.25;6.55;;;4.30;99.90;;;;;;5065120;28;20168;-80
2023/11/28 08:07:20;;;;;;;6.22;5.72;;;4.30;99.90;;;;;;5050826;28;20174;-79
2023/11/28 08:10:10;;;;;;;7.65;6.95;;;4.30;99.90;;;;;;5070307;28;20206;-80
2023/11/28 08:12:55;;;;;;;7.55;6.95;;;4.30;99.90;;;;;;5069501;28;20256;-80
2023/11/28 08:15:44;;;;;;;8.00;7.40;;;4.30;99.90;;;;;;5064833;28;20165;-81
2023/11/28 08:18:30;;;;;;;8.00;7.30;;;4.30;99.90;;;;;;5093543;28;20141;-80
2023/11/28 08:21:17;;;;;;;7.35;6.65;;;4.30;99.90;;;;;;5096141;28;20229;-79
2023/11/28 08:24:04;;;;;;;6.43;5.82;;;4.30;99.90;;;;;;5081587;28;20176;-81
2023/11/28 08:26:50;;;;;;;6.57;5.82;;;4.30;99.90;;;;;;5082356;28;20163;-81
2023/11/28 08:29:35;;;;;;;10.20;5.97;;;4.30;99.90;;;;;;5096089;28;20191;-81
2023/11/28 08:32:21;;;;;;;7.18;5.20;;;4.30;99.90;;;;;;5092065;28;20180;-79
2023/11/28 08:35:07;;;;;;;6.65;6.05;;;4.30;99.90;;;;;;5091770;28;20172;-80
2023/11/28 08:37:53;;;;;;;5.68;5.18;;;4.30;99.90;;;;;;5057203;28;20188;-81
2023/11/28 08:40:39;;;;;;;5.20;4.70;;;4.30;99.90;;;;;;5069155;28;20234;-81
2023/11/28 08:43:24;;;;;;;4.32;4.03;;;4.30;99.90;;;;;;5067522;28;20236;-81
2023/11/28 08:46:14;;;;;;;3.75;3.40;;;4.30;99.90;;;;;;5079425;28;20192;-80
2023/11/28 08:48:59;;;;;;;3.63;3.33;;;4.30;99.90;;;;;;5087268;28;20243;-81
2023/11/28 08:51:46;;;;;;;4.00;3.50;;;4.30;99.90;;;;;;5060155;28;20202;-81
2023/11/28 08:54:32;;;;;;;4.10;3.70;;;4.30;99.90;;;;;;5065871;28;20579;-81
2023/11/28 08:57:18;;;;;;;4.80;3.40;;;4.30;99.90;;;;;;5066687;28;20170;-79
2023/11/28 09:00:05;;;;;;;3.10;2.85;;;4.30;99.90;;;;;;5066111;28;20197;-81
2023/11/28 09:02:51;;;;;;;2.67;2.47;;;4.30;99.90;;;;;;5064412;28;20188;-81
2023/11/28 09:05:37;;;;;;;3.63;3.10;;;4.40;99.90;;;;;;5052161;28;20259;-80
2023/11/28 09:08:23;;;;;;;2.65;2.42;;;4.40;99.90;;;;;;5071879;28;20197;-81
2023/11/28 09:11:11;;;;;;;11.43;4.18;;;4.40;99.90;;;;;;5040257;28;20280;-81
2023/11/28 09:13:57;;;;;;;2.53;2.33;;;4.40;99.90;;;;;;5049619;28;20186;-81
2023/11/28 09:16:45;;;;;;;3.67;3.38;;;4.40;99.90;;;;;;5031499;28;20260;-80
2023/11/28 09:19:33;;;;;;;3.55;2.63;;;4.50;99.90;;;;;;5064792;28;21027;-81
2023/11/28 09:22:19;;;;;;;2.22;2.03;;;4.50;99.90;;;;;;5075620;28;20168;-81
2023/11/28 09:25:06;;;;;;;2.45;2.20;;;4.50;99.90;;;;;;5072473;28;20185;-79
2023/11/28 09:27:51;;;;;;;2.95;2.40;;;4.60;99.90;;;;;;5064999;28;20681;-82
2023/11/28 09:30:37;;;;;;;3.08;2.63;;;4.60;99.90;;;;;;5047682;28;20193;-81
2023/11/28 09:33:23;;;;;;;2.95;2.65;;;4.60;99.90;;;;;;5062446;28;20201;-81
2023/11/28 09:36:09;;;;;;;3.33;2.60;;;4.60;99.90;;;;;;5052786;28;20184;-82
2023/11/28 09:38:58;;;;;;;2.75;2.45;;;4.60;99.90;;;;;;5086869;28;20220;-82
2023/11/28 09:41:45;;;;;;;3.00;2.00;;;4.60;99.90;;;;;;5081033;28;20173;-81
2023/11/28 09:44:35;;;;;;;4.43;2.47;;;4.60;99.90;;;;;;5076277;28;20180;-83
2023/11/28 09:47:22;;;;;;;2.33;1.90;;;4.70;99.90;;;;;;5049215;28;20545;-80
2023/11/28 09:50:12;;;;;;;1.80;1.55;;;4.70;99.90;;;;;;5067407;28;20196;-80
2023/11/28 09:52:59;;;;;;;3.17;2.65;;;4.70;99.90;;;;;;5054360;28;20185;-81
2023/11/28 09:55:45;;;;;;;2.03;1.75;;;4.70;99.90;;;;;;5052055;28;20542;-82
2023/11/28 09:58:31;;;;;;;2.83;2.05;;;4.70;99.90;;;;;;5064740;28;20188;-80
2023/11/28 10:01:17;;;;;;;2.78;2.58;;;4.80;99.90;;;;;;5076717;28;20217;-81
2023/11/28 10:04:03;;;;;;;3.35;2.30;;;4.90;99.90;;;;;;5072420;28;20187;-81
2023/11/28 10:06:50;;;;;;;3.78;2.10;;;4.90;99.90;;;;;;5059128;28;20185;-81
2023/11/28 10:09:37;;;;;;;2.28;1.83;;;5.00;99.90;;;;;;5081473;28;20193;-81
2023/11/28 10:12:23;;;;;;;1.75;1.30;;;5.00;99.90;;;;;;5058407;28;20261;-81
2023/11/28 10:15:11;;;;;;;2.78;2.58;;;5.10;99.90;;;;;;5047289;28;20680;-81
2023/11/28 10:17:57;;;;;;;3.15;2.30;;;5.10;99.90;;;;;;5073198;28;20339;-81
2023/11/28 10:20:43;;;;;;;1.80;1.20;;;5.20;99.90;;;;;;5057765;28;20275;-78
2023/11/28 10:23:28;;;;;;;3.08;2.33;;;5.30;99.90;;;;;;5038983;28;20256;-78
2023/11/28 10:26:14;;;;;;;2.00;1.30;;;5.30;99.90;;;;;;5038005;28;20173;-78
2023/11/28 10:29:02;;;;;;;1.83;1.40;;;5.30;99.90;;;;;;5052768;28;20731;-75
2023/11/28 10:31:49;;;;;;;2.53;1.65;;;5.40;99.90;;;;;;5051322;28;20241;-78
2023/11/28 10:34:36;;;;;;;2.53;1.60;;;5.40;99.90;;;;;;5036810;28;20247;-77
2023/11/28 10:37:22;;;;;;;1.80;1.55;;;5.50;99.90;;;;;;5051156;28;20212;-77
2023/11/28 10:40:17;;;;;;;3.15;1.30;;;5.50;99.90;;;;;;5037348;28;20298;-78
2023/11/28 10:43:05;;;;;;;1.80;1.50;;;5.60;99.90;;;;;;5051569;28;20183;-77
2023/11/28 10:45:54;;;;;;;3.22;1.58;;;5.60;99.90;;;;;;5028082;28;20181;-77
2023/11/28 10:48:40;;;;;;;1.90;1.48;;;5.70;99.90;;;;;;5032180;28;20281;-78
2023/11/28 10:51:28;;;;;;;2.17;1.30;;;5.70;99.90;;;;;;5040578;28;20201;-78
2023/11/28 10:54:16;;;;;;;1.67;1.27;;;5.70;99.90;;;;;;5031077;28;20252;-78
2023/11/28 10:57:11;;;;;;;1.88;1.33;;;5.70;99.90;;;;;;5033488;28;20189;-75
2023/11/28 11:00:02;;;;;;;2.38;1.40;;;5.70;99.90;;;;;;5050383;28;20612;-75
2023/11/28 11:02:48;;;;;;;2.53;1.17;;;5.80;99.90;;;;;;5043861;28;20173;-75
2023/11/28 11:05:35;;;;;;;1.50;1.10;;;5.90;99.90;;;;;;5037738;28;20248;-75
2023/11/28 11:08:21;;;;;;;2.00;1.80;;;5.90;99.90;;;;;;5015346;28;20678;-75
2023/11/28 11:11:08;;;;;;;2.10;1.55;;;5.90;99.90;;;;;;5031833;28;20211;-76
2023/11/28 11:14:24;;;;;;;1.80;1.35;;;5.80;99.90;;;;;;5049706;28;20184;-76
2023/11/28 11:17:31;;;;;;;2.15;1.27;;;5.80;99.90;;;;;;5050045;28;20184;-76
2023/11/28 11:20:18;;;;;;;1.85;1.17;;;5.70;99.90;;;;;;5024941;28;20201;-77
2023/11/28 11:23:05;;;;;;;1.58;1.10;;;5.70;99.90;;;;;;5029780;28;20664;-76
2023/11/28 11:25:54;;;;;;;1.50;1.20;;;5.70;99.90;;;;;;5036834;28;20208;-76
2023/11/28 11:28:41;;;;;;;2.00;1.40;;;5.60;99.90;;;;;;5036829;28;20201;-76
2023/11/28 11:31:27;;;;;;;2.30;1.30;;;5.70;99.90;;;;;;5044646;28;20681;-76
2023/11/28 11:34:42;;;;;;;1.60;1.23;;;5.70;99.90;;;;;;5040456;28;20177;-76
2023/11/28 11:37:32;;;;;;;2.03;1.55;;;5.80;99.90;;;;;;5044279;28;20173;-77
2023/11/28 11:40:21;;;;;;;3.75;1.80;;;5.90;99.90;;;;;;5036339;28;20251;-76
2023/11/28 11:43:06;;;;;;;3.92;1.40;;;5.90;99.90;;;;;;5041000;28;20185;-76
2023/11/28 11:45:52;;;;;;;2.00;1.27;;;6.00;99.90;;;;;;5040449;28;20189;-76
2023/11/28 11:48:39;;;;;;;1.70;1.17;;;6.00;99.90;;;;;;5049754;28;20219;-76
2023/11/28 11:51:25;;;;;;;2.38;1.23;;;6.00;99.90;;;;;;5043011;28;20280;-77
2023/11/28 11:54:11;;;;;;;1.90;1.20;;;6.00;99.90;;;;;;5014984;28;20256;-77
2023/11/28 11:56:57;;;;;;;4.95;1.20;;;6.00;99.90;;;;;;5032296;28;20243;-77
2023/11/28 11:59:43;;;;;;;1.80;1.20;;;6.00;99.90;;;;;;5039493;28;20173;-77
2023/11/28 12:02:40;;;;;;;1.70;1.27;;;6.00;99.90;;;;;;5022029;28;20216;-77
2023/11/28 12:05:25;;;;;;;1.75;1.25;;;6.10;99.90;;;;;;5038353;28;20595;-77
2023/11/28 12:08:11;;;;;;;1.80;1.10;;;6.10;99.90;;;;;;5050356;28;20674;-77
2023/11/28 12:11:11;;;;;;;1.98;1.15;;;6.20;99.90;;;;;;5048912;28;20704;-78
2023/11/28 12:13:59;;;;;;;1.38;0.88;;;6.30;99.90;;;;;;5049535;28;20630;-77
2023/11/28 12:16:45;;;;;;;2.08;1.00;;;6.30;99.90;;;;;;5050988;28;20181;-77
2023/11/28 12:19:31;;;;;;;1.50;1.15;;;6.30;99.90;;;;;;5044415;28;20195;-77
2023/11/28 12:22:18;;;;;;;1.55;0.95;;;6.40;99.90;;;;;;5014355;28;20199;-77
2023/11/28 12:25:04;;;;;;;2.35;1.42;;;6.40;99.90;;;;;;5048969;28;20192;-76
2023/11/28 12:27:50;;;;;;;2.00;1.17;;;6.40;99.90;;;;;;5049218;28;20193;-76
2023/11/28 12:30:36;;;;;;;2.00;1.17;;;6.30;99.90;;;;;;5035439;28;20609;-77
2023/11/28 12:33:23;;;;;;;1.50;1.20;;;6.40;99.90;;;;;;5035135;28;20536;-77
2023/11/28 12:36:12;;;;;;;2.08;1.08;;;6.30;99.90;;;;;;5035937;28;20257;-76
2023/11/28 12:38:58;;;;;;;2.03;1.48;;;6.30;99.90;;;;;;5041274;28;20261;-75
2023/11/28 12:41:46;;;;;;;2.50;1.17;;;6.20;99.90;;;;;;5047445;28;20223;-74
2023/11/28 12:44:32;;;;;;;1.70;1.20;;;6.30;99.90;;;;;;5007318;28;20652;-75
2023/11/28 12:47:18;;;;;;;1.50;1.20;;;6.30;99.90;;;;;;5024536;28;20607;-75
2023/11/28 12:50:07;;;;;;;2.17;1.05;;;6.20;99.90;;;;;;5028355;28;20223;-75
2023/11/28 12:52:52;;;;;;;2.65;1.85;;;6.20;99.90;;;;;;5056339;28;20184;-75
2023/11/28 12:55:38;;;;;;;2.38;1.65;;;6.20;99.90;;;;;;5056308;28;20247;-74
2023/11/28 12:58:04;;;;;;;2.20;1.50;;;6.20;99.90;;;;;;5040766;28;20187;-74
2023/11/28 13:00:40;;;;;;;2.10;1.55;;;6.20;99.90;;;;;;5035725;28;20189;-74
2023/11/28 13:03:06;;;;;;;1.90;1.40;;;6.10;99.90;;;;;;5024440;28;20173;-75
2023/11/28 13:05:32;;;;;;;1.90;1.50;;;6.10;99.90;;;;;;5033204;28;20631;-74
2023/11/28 13:07:57;;;;;;;2.77;2.00;;;6.10;99.90;;;;;;5021444;28;20253;-75
2023/11/28 13:10:23;;;;;;;2.40;1.83;;;6.10;99.90;;;;;;4993858;28;20189;-74
2023/11/28 13:12:49;;;;;;;2.10;1.80;;;6.00;99.90;;;;;;5055531;28;20635;-74
2023/11/28 13:15:16;;;;;;;3.20;2.13;;;6.00;99.90;;;;;;5053186;28;20196;-75
2023/11/28 13:17:41;;;;;;;2.75;1.80;;;6.00;99.90;;;;;;5057555;28;20168;-75
2023/11/28 13:20:07;;;;;;;3.10;2.40;;;6.00;99.90;;;;;;5022143;28;20536;-75
2023/11/28 13:22:34;;;;;;;2.40;2.20;;;5.90;99.90;;;;;;5050231;28;20610;-76
2023/11/28 13:25:01;;;;;;;9.52;2.70;;;5.90;99.90;;;;;;5038416;28;20268;-75
2023/11/28 13:27:27;;;;;;;3.75;1.90;;;5.90;99.90;;;;;;5030469;28;20597;-75
2023/11/28 13:29:53;;;;;;;3.50;2.37;;;5.90;99.90;;;;;;5055338;28;20227;-75
2023/11/28 13:32:18;;;;;;;2.80;1.80;;;6.00;99.90;;;;;;5005557;28;20729;-75
2023/11/28 13:34:45;;;;;;;4.33;2.80;;;6.00;99.90;;;;;;5038744;28;20255;-75
2023/11/28 13:37:11;;;;;;;3.70;3.05;;;6.00;99.90;;;;;;5049008;28;20660;-75
2023/11/28 13:39:36;;;;;;;4.33;2.47;;;6.00;99.90;;;;;;5039707;28;20174;-75
2023/11/28 13:42:02;;;;;;;3.83;2.90;;;6.10;99.90;;;;;;5036071;28;20653;-74
2023/11/28 13:44:28;;;;;;;5.10;2.83;;;6.10;99.90;;;;;;5021707;28;20271;-75
2023/11/28 13:46:54;;;;;;;3.37;2.30;;;6.00;99.90;;;;;;5014039;28;20319;-75
2023/11/28 13:49:20;;;;;;;3.77;2.37;;;6.00;99.90;;;;;;5052161;28;20559;-75
2023/11/28 13:51:45;;;;;;;3.57;2.67;;;6.00;99.90;;;;;;5042159;28;20686;-75
2023/11/28 13:54:11;;;;;;;3.50;2.40;;;6.00;99.90;;;;;;5019987;28;20177;-75
2023/11/28 13:56:37;;;;;;;3.10;2.50;;;6.00;99.90;;;;;;5029933;28;20177;-74
2023/11/28 13:59:03;;;;;;;3.80;3.00;;;6.00;99.90;;;;;;5020852;28;20191;-75
2023/11/28 14:01:29;;;;;;;3.40;3.00;;;5.90;99.90;;;;;;5046157;28;20222;-74
2023/11/28 14:03:56;;;;;;;3.45;3.15;;;5.90;99.90;;;;;;5043530;28;20571;-74
2023/11/28 14:06:22;;;;;;;5.10;3.20;;;5.90;99.90;;;;;;5023495;28;20182;-75
2023/11/28 14:08:47;;;;;;;3.80;3.50;;;5.80;99.90;;;;;;4998782;28;20198;-75
2023/11/28 14:11:13;;;;;;;4.27;2.70;;;5.80;99.90;;;;;;5051486;28;20606;-75